createdAt,value
2023-11-29T00:00:44.337Z,17.80
2023-11-29T00:01:46.998Z,17.90
2023-11-29T00:02:49.651Z,17.90
2023-11-29T00:03:52.737Z,17.80
2023-11-29T00:04:55.440Z,17.80
2023-11-29T00:05:58.275Z,17.80
2023-11-29T00:07:00.802Z,17.80
2023-11-29T00:08:05.989Z,17.80
2023-11-29T00:09:09.935Z,17.80
2023-11-29T00:10:12.576Z,17.80
2023-11-29T00:11:16.097Z,17.80
2023-11-29T00:12:19.613Z,17.80
2023-11-29T00:13:22.518Z,17.80
2023-11-29T00:14:24.933Z,17.80
2023-11-29T00:15:27.278Z,17.80
2023-11-29T00:16:29.847Z,17.80
2023-11-29T00:17:32.453Z,17.70
2023-11-29T00:18:35.270Z,17.80
2023-11-29T00:19:38.715Z,17.70
2023-11-29T00:20:41.467Z,17.70
2023-11-29T00:21:45.276Z,17.70
2023-11-29T00:22:47.800Z,17.70
2023-11-29T00:23:50.268Z,17.70
2023-11-29T00:24:52.920Z,17.70
2023-11-29T00:25:55.674Z,17.70
2023-11-29T00:26:58.251Z,17.70
2023-11-29T00:28:01.011Z,17.70
2023-11-29T00:29:04.160Z,17.70
2023-11-29T00:30:08.528Z,17.70
2023-11-29T00:31:11.108Z,17.70
2023-11-29T00:32:13.918Z,17.60
2023-11-29T00:33:16.447Z,17.60
2023-11-29T00:34:18.910Z,17.60
2023-11-29T00:35:21.352Z,17.60
2023-11-29T00:36:25.336Z,17.60
2023-11-29T00:37:27.788Z,17.70
2023-11-29T00:38:30.220Z,17.70
2023-11-29T00:39:33.794Z,17.70
2023-11-29T00:40:36.320Z,17.70
2023-11-29T00:41:39.823Z,17.70
2023-11-29T00:42:43.910Z,17.70
2023-11-29T00:43:47.734Z,17.70
2023-11-29T00:44:53.393Z,17.70
2023-11-29T00:45:55.842Z,17.70
2023-11-29T00:46:58.297Z,17.70
2023-11-29T00:48:01.202Z,17.70
2023-11-29T00:49:03.694Z,17.70
2023-11-29T00:50:07.798Z,17.70
2023-11-29T00:51:10.201Z,17.70
2023-11-29T00:52:14.059Z,17.70
2023-11-29T00:53:16.523Z,17.70
2023-11-29T00:54:18.968Z,17.70
2023-11-29T00:55:26.031Z,17.70
2023-11-29T00:56:35.033Z,17.70
2023-11-29T00:57:37.611Z,17.70
2023-11-29T00:58:40.601Z,17.70
2023-11-29T00:59:42.977Z,17.70
2023-11-29T01:00:45.367Z,17.70
2023-11-29T01:01:48.208Z,17.70
2023-11-29T01:02:51.041Z,17.70
2023-11-29T01:03:53.907Z,17.70
2023-11-29T01:04:56.887Z,17.70
2023-11-29T01:05:59.213Z,17.70
2023-11-29T01:07:01.626Z,17.70
2023-11-29T01:08:04.031Z,17.70
2023-11-29T01:09:08.038Z,17.70
2023-11-29T01:10:10.425Z,17.70
2023-11-29T01:11:12.964Z,17.70
2023-11-29T01:12:15.470Z,17.70
2023-11-29T01:13:21.005Z,17.70
2023-11-29T01:14:23.622Z,17.70
2023-11-29T01:15:26.028Z,17.70
2023-11-29T01:16:28.455Z,17.70
2023-11-29T01:17:32.577Z,17.70
2023-11-29T01:18:35.894Z,17.70
2023-11-29T01:19:38.300Z,17.70
2023-11-29T01:20:42.663Z,17.60
2023-11-29T01:21:45.071Z,17.70
2023-11-29T01:22:47.393Z,17.60
2023-11-29T01:23:51.358Z,17.70
2023-11-29T01:24:54.756Z,17.70
2023-11-29T01:25:57.870Z,17.70
2023-11-29T01:27:00.546Z,17.60
2023-11-29T01:28:04.638Z,17.60
2023-11-29T01:29:08.276Z,17.60
2023-11-29T01:30:12.949Z,17.70
2023-11-29T01:31:15.561Z,17.70
2023-11-29T01:32:18.894Z,17.70
2023-11-29T01:33:22.285Z,17.70
2023-11-29T01:34:25.678Z,17.70
2023-11-29T01:35:28.202Z,17.70
2023-11-29T01:36:30.606Z,17.70
2023-11-29T01:37:35.305Z,17.70
2023-11-29T01:38:38.109Z,17.70
2023-11-29T01:39:43.156Z,17.70
2023-11-29T01:40:45.577Z,17.70
2023-11-29T01:41:48.339Z,17.70
2023-11-29T01:42:50.810Z,17.70
2023-11-29T01:43:53.549Z,17.70
2023-11-29T01:44:56.556Z,17.70
2023-11-29T01:45:59.722Z,17.60
2023-11-29T01:47:07.207Z,17.60
2023-11-29T01:48:09.746Z,17.60
2023-11-29T01:49:12.845Z,17.60
2023-11-29T01:50:19.372Z,17.60
2023-11-29T01:51:24.202Z,17.60
2023-11-29T01:52:26.640Z,17.60
2023-11-29T01:53:30.948Z,17.60
2023-11-29T01:54:33.493Z,17.50
2023-11-29T01:55:37.278Z,17.50
2023-11-29T01:56:41.177Z,17.50
2023-11-29T01:57:43.897Z,17.50
2023-11-29T01:58:46.502Z,17.50
2023-11-29T02:00:08.225Z,17.50
2023-11-29T02:01:18.363Z,17.50
2023-11-29T02:02:21.923Z,17.50
2023-11-29T02:03:24.500Z,17.40
2023-11-29T02:04:27.249Z,17.40
2023-11-29T02:05:30.910Z,17.40
2023-11-29T02:06:33.418Z,17.40
2023-11-29T02:07:36.889Z,17.40
2023-11-29T02:08:39.438Z,17.40
2023-11-29T02:09:41.899Z,17.40
2023-11-29T02:10:45.110Z,17.40
2023-11-29T02:11:49.316Z,17.40
2023-11-29T02:12:53.263Z,17.40
2023-11-29T02:13:55.669Z,17.40
2023-11-29T02:14:58.018Z,17.40
2023-11-29T02:16:00.740Z,17.30
2023-11-29T02:17:03.171Z,17.40
2023-11-29T02:18:05.752Z,17.40
2023-11-29T02:19:09.097Z,17.30
2023-11-29T02:20:16.341Z,17.40
2023-11-29T02:21:20.105Z,17.40
2023-11-29T02:22:27.962Z,17.40
2023-11-29T02:23:55.204Z,17.40
2023-11-29T02:24:57.749Z,17.30
2023-11-29T02:26:00.136Z,17.30
2023-11-29T02:27:02.572Z,17.30
2023-11-29T02:28:05.435Z,17.30
2023-11-29T02:29:07.862Z,17.30
2023-11-29T02:30:11.052Z,17.30
2023-11-29T02:33:54.465Z,17.30
2023-11-29T02:34:56.892Z,17.30
2023-11-29T02:35:59.255Z,17.30
2023-11-29T02:37:01.619Z,17.30
2023-11-29T02:38:04.100Z,17.30
2023-11-29T02:39:06.688Z,17.30
2023-11-29T02:40:11.542Z,17.30
2023-11-29T02:41:13.986Z,17.30
2023-11-29T02:42:16.642Z,17.30
2023-11-29T02:43:19.069Z,17.30
2023-11-29T02:44:22.336Z,17.20
2023-11-29T02:45:24.875Z,17.30
2023-11-29T02:46:27.415Z,17.30
2023-11-29T02:47:30.382Z,17.30
2023-11-29T02:48:32.947Z,17.20
2023-11-29T02:49:35.619Z,17.20
2023-11-29T02:50:38.050Z,17.20
2023-11-29T02:51:40.479Z,17.20
2023-11-29T02:52:42.982Z,17.20
2023-11-29T02:53:45.467Z,17.20
2023-11-29T02:54:47.976Z,17.30
2023-11-29T02:55:50.492Z,17.20
2023-11-29T02:56:52.943Z,17.20
2023-11-29T02:57:58.025Z,17.30
2023-11-29T02:59:00.387Z,17.30
2023-11-29T03:00:02.807Z,17.20
2023-11-29T03:01:05.405Z,17.20
2023-11-29T03:02:09.735Z,17.20
2023-11-29T03:03:12.195Z,17.20
2023-11-29T03:04:14.946Z,17.20
2023-11-29T03:05:17.422Z,17.20
2023-11-29T03:06:19.767Z,17.20
2023-11-29T03:07:22.146Z,17.20
2023-11-29T03:08:24.825Z,17.20
2023-11-29T03:09:27.207Z,17.20
2023-11-29T03:10:29.624Z,17.20
2023-11-29T03:11:32.055Z,17.20
2023-11-29T03:12:34.455Z,17.20
2023-11-29T03:13:37.469Z,17.20
2023-11-29T03:14:39.938Z,17.20
2023-11-29T03:15:42.424Z,17.20
2023-11-29T03:16:44.828Z,17.20
2023-11-29T03:17:47.487Z,17.20
2023-11-29T03:18:49.892Z,17.20
2023-11-29T03:19:52.206Z,17.20
2023-11-29T03:20:54.525Z,17.20
2023-11-29T03:21:57.029Z,17.20
2023-11-29T03:22:59.382Z,17.20
2023-11-29T03:24:02.390Z,17.20
2023-11-29T03:25:05.022Z,17.20
2023-11-29T03:26:08.764Z,17.20
2023-11-29T03:27:11.095Z,17.20
2023-11-29T03:28:13.564Z,17.20
2023-11-29T03:29:15.968Z,17.20
2023-11-29T03:30:18.378Z,17.20
2023-11-29T03:31:20.733Z,17.10
2023-11-29T03:32:23.165Z,17.20
2023-11-29T03:33:25.662Z,17.20
2023-11-29T03:34:28.201Z,17.20
2023-11-29T03:35:30.583Z,17.20
2023-11-29T03:36:33.649Z,17.20
2023-11-29T03:37:36.022Z,17.20
2023-11-29T03:38:39.538Z,17.20
2023-11-29T03:39:41.889Z,17.20
2023-11-29T03:40:44.448Z,17.20
2023-11-29T03:41:49.090Z,17.20
2023-11-29T03:42:51.504Z,17.20
2023-11-29T03:43:53.877Z,17.20
2023-11-29T03:44:56.417Z,17.20
2023-11-29T03:45:58.878Z,17.10
2023-11-29T03:47:01.317Z,17.10
2023-11-29T03:48:03.940Z,17.10
2023-11-29T03:49:06.415Z,17.10
2023-11-29T03:50:09.107Z,17.10
2023-11-29T03:51:11.479Z,17.10
2023-11-29T03:52:13.933Z,17.10
2023-11-29T03:53:16.385Z,17.10
2023-11-29T03:54:18.831Z,17.10
2023-11-29T03:55:21.208Z,17.10
2023-11-29T03:56:23.595Z,17.10
2023-11-29T03:57:27.076Z,17.10
2023-11-29T03:58:29.458Z,17.10
2023-11-29T03:59:32.239Z,17.10
2023-11-29T04:00:35.324Z,17.10
2023-11-29T04:01:37.784Z,17.10
2023-11-29T04:02:40.579Z,17.00
2023-11-29T04:03:43.044Z,17.10
2023-11-29T04:04:46.309Z,17.00
2023-11-29T04:05:48.674Z,17.10
2023-11-29T04:06:51.201Z,17.00
2023-11-29T04:07:53.510Z,17.10
2023-11-29T04:08:57.022Z,17.00
2023-11-29T04:10:05.679Z,17.00
2023-11-29T04:11:12.479Z,17.00
2023-11-29T04:12:15.001Z,17.00
2023-11-29T04:13:17.437Z,17.00
2023-11-29T04:14:19.958Z,17.00
2023-11-29T04:15:22.398Z,17.00
2023-11-29T04:16:26.675Z,17.00
2023-11-29T04:17:29.191Z,17.00
2023-11-29T04:18:31.584Z,17.00
2023-11-29T04:19:34.006Z,17.00
2023-11-29T04:20:36.486Z,16.90
2023-11-29T04:21:38.953Z,17.00
2023-11-29T04:22:44.187Z,16.90
2023-11-29T04:23:47.140Z,17.00
2023-11-29T04:24:49.531Z,17.00
2023-11-29T04:25:52.242Z,17.00
2023-11-29T04:26:54.646Z,16.90
2023-11-29T04:27:57.693Z,16.90
2023-11-29T04:29:02.515Z,16.90
2023-11-29T04:30:06.172Z,16.90
2023-11-29T04:31:08.865Z,16.90
2023-11-29T04:32:11.391Z,16.90
2023-11-29T04:33:13.854Z,16.90
2023-11-29T04:34:23.427Z,16.90
2023-11-29T04:35:35.917Z,16.90
2023-11-29T04:36:40.315Z,16.90
2023-11-29T04:37:44.458Z,16.90
2023-11-29T04:38:47.311Z,16.90
2023-11-29T04:39:50.281Z,16.90
2023-11-29T04:40:53.224Z,16.90
2023-11-29T04:41:55.624Z,16.90
2023-11-29T04:42:58.251Z,16.90
2023-11-29T04:44:01.403Z,16.80
2023-11-29T04:45:04.996Z,16.80
2023-11-29T04:46:07.555Z,16.80
2023-11-29T04:47:10.013Z,16.80
2023-11-29T04:48:12.378Z,16.80
2023-11-29T04:49:14.706Z,16.80
2023-11-29T04:50:17.111Z,16.80
2023-11-29T04:51:20.905Z,16.80
2023-11-29T04:52:24.127Z,16.80
2023-11-29T04:53:27.289Z,16.80
2023-11-29T04:54:30.170Z,16.80
2023-11-29T04:55:32.572Z,16.80
2023-11-29T04:56:35.183Z,16.80
2023-11-29T04:57:38.277Z,16.80
2023-11-29T04:58:41.288Z,16.90
2023-11-29T04:59:43.923Z,17.00
2023-11-29T05:00:47.104Z,17.10
2023-11-29T05:01:50.377Z,17.20
2023-11-29T05:02:53.245Z,17.20
2023-11-29T05:03:56.316Z,17.30
2023-11-29T05:04:59.196Z,17.40
2023-11-29T05:06:01.589Z,17.40
2023-11-29T05:07:04.006Z,17.50
2023-11-29T05:08:06.649Z,17.60
2023-11-29T05:09:09.205Z,17.60
2023-11-29T05:10:11.913Z,17.70
2023-11-29T05:11:14.362Z,17.80
2023-11-29T05:12:16.715Z,17.80
2023-11-29T05:13:19.086Z,17.90
2023-11-29T05:14:21.582Z,17.90
2023-11-29T05:15:29.564Z,18.00
2023-11-29T05:16:35.148Z,18.00
2023-11-29T05:17:37.586Z,18.10
2023-11-29T05:18:40.238Z,18.20
2023-11-29T05:19:42.764Z,18.20
2023-11-29T05:20:45.315Z,18.20
2023-11-29T05:21:47.692Z,18.30
2023-11-29T05:22:50.262Z,18.30
2023-11-29T05:23:52.705Z,18.40
2023-11-29T05:24:55.110Z,18.40
2023-11-29T05:25:58.401Z,18.40
2023-11-29T05:27:00.893Z,18.50
2023-11-29T05:28:03.780Z,18.50
2023-11-29T05:29:06.178Z,18.60
2023-11-29T05:30:09.400Z,18.60
2023-11-29T05:31:11.959Z,18.60
2023-11-29T05:32:15.162Z,18.60
2023-11-29T05:33:19.760Z,18.70
2023-11-29T05:34:23.793Z,18.70
2023-11-29T05:35:27.400Z,18.70
2023-11-29T05:36:29.776Z,18.80
2023-11-29T05:37:33.163Z,18.80
2023-11-29T05:38:36.117Z,18.80
2023-11-29T05:39:38.587Z,18.90
2023-11-29T05:40:41.142Z,18.90
2023-11-29T05:41:44.166Z,18.90
2023-11-29T05:42:46.556Z,18.90
2023-11-29T05:43:49.192Z,18.90
2023-11-29T05:44:54.810Z,19.00
2023-11-29T05:45:57.290Z,19.00
2023-11-29T05:47:02.896Z,19.00
2023-11-29T05:48:06.049Z,19.00
2023-11-29T05:49:09.897Z,19.10
2023-11-29T05:50:12.321Z,19.10
2023-11-29T05:51:15.155Z,19.00
2023-11-29T05:52:19.870Z,19.10
2023-11-29T05:53:24.360Z,19.10
2023-11-29T05:54:27.890Z,19.10
2023-11-29T05:55:30.265Z,19.10
2023-11-29T05:56:33.228Z,19.10
2023-11-29T05:57:35.742Z,19.20
2023-11-29T05:58:41.820Z,19.20
2023-11-29T05:59:45.979Z,19.20
2023-11-29T06:00:49.067Z,19.20
2023-11-29T06:01:52.861Z,19.20
2023-11-29T06:02:55.494Z,19.20
2023-11-29T06:03:58.040Z,19.30
2023-11-29T06:05:00.428Z,19.30
2023-11-29T06:06:02.908Z,19.30
2023-11-29T06:07:05.288Z,19.30
2023-11-29T06:08:07.802Z,19.30
2023-11-29T06:09:10.712Z,19.30
2023-11-29T06:10:13.171Z,19.30
2023-11-29T06:11:18.176Z,19.30
2023-11-29T06:12:22.140Z,19.40
2023-11-29T06:13:24.770Z,19.40
2023-11-29T06:14:28.177Z,19.40
2023-11-29T06:15:30.655Z,19.40
2023-11-29T06:16:34.834Z,19.40
2023-11-29T06:17:38.437Z,19.40
2023-11-29T06:18:40.969Z,19.40
2023-11-29T06:19:45.892Z,19.40
2023-11-29T06:20:48.721Z,19.40
2023-11-29T06:21:51.201Z,19.50
2023-11-29T06:22:54.172Z,19.40
2023-11-29T06:23:56.701Z,19.50
2023-11-29T06:25:00.553Z,19.50
2023-11-29T06:26:03.295Z,19.50
2023-11-29T06:27:05.790Z,19.50
2023-11-29T06:28:08.629Z,19.50
2023-11-29T06:29:11.058Z,19.50
2023-11-29T06:30:14.601Z,19.50
2023-11-29T06:31:17.109Z,19.50
2023-11-29T06:32:19.584Z,19.50
2023-11-29T06:33:22.007Z,19.50
2023-11-29T06:34:24.654Z,19.50
2023-11-29T06:35:27.178Z,19.60
2023-11-29T06:36:34.078Z,19.60
2023-11-29T06:37:38.268Z,19.60
2023-11-29T06:38:40.740Z,19.60
2023-11-29T06:39:43.493Z,19.60
2023-11-29T06:40:50.698Z,19.60
2023-11-29T06:41:57.048Z,19.60
2023-11-29T06:43:00.349Z,19.60
2023-11-29T06:44:05.798Z,19.60
2023-11-29T06:45:09.865Z,19.60
2023-11-29T06:46:12.413Z,19.70
2023-11-29T06:47:14.900Z,19.70
2023-11-29T06:48:21.179Z,19.70
2023-11-29T06:49:23.637Z,19.70
2023-11-29T06:50:26.121Z,19.70
2023-11-29T06:51:29.537Z,19.70
2023-11-29T06:52:34.100Z,19.70
2023-11-29T06:53:38.672Z,19.70
2023-11-29T06:54:42.066Z,19.70
2023-11-29T06:55:44.594Z,19.70
2023-11-29T06:56:47.973Z,19.70
2023-11-29T06:57:51.873Z,19.70
2023-11-29T06:58:56.630Z,19.70
2023-11-29T06:59:59.509Z,19.80
2023-11-29T07:01:02.338Z,19.80
2023-11-29T07:02:06.882Z,19.80
2023-11-29T07:03:09.520Z,19.80
2023-11-29T07:04:11.979Z,19.80
2023-11-29T07:05:14.401Z,19.80
2023-11-29T07:06:24.861Z,19.80
2023-11-29T07:07:27.234Z,19.80
2023-11-29T07:08:32.231Z,19.80
2023-11-29T07:09:34.796Z,19.80
2023-11-29T07:10:37.198Z,19.80
2023-11-29T07:11:39.553Z,19.80
2023-11-29T07:12:42.100Z,19.80
2023-11-29T07:13:44.871Z,19.90
2023-11-29T07:14:47.231Z,19.90
2023-11-29T07:15:51.924Z,19.90
2023-11-29T07:16:54.416Z,19.90
2023-11-29T07:17:56.864Z,19.90
2023-11-29T07:18:59.644Z,19.90
2023-11-29T07:20:05.275Z,19.90
2023-11-29T07:21:07.843Z,19.90
2023-11-29T07:22:10.968Z,19.90
2023-11-29T07:23:13.571Z,19.90
2023-11-29T07:24:15.934Z,19.90
2023-11-29T07:25:18.300Z,19.90
2023-11-29T07:26:20.684Z,19.90
2023-11-29T07:27:23.089Z,19.90
2023-11-29T07:28:28.431Z,19.90
2023-11-29T07:29:32.356Z,19.90
2023-11-29T07:30:35.005Z,19.90
2023-11-29T07:31:37.651Z,19.90
2023-11-29T07:32:41.015Z,19.90
2023-11-29T07:33:44.911Z,19.90
2023-11-29T07:34:48.666Z,19.90
2023-11-29T07:35:51.131Z,19.90
2023-11-29T07:36:53.882Z,19.90
2023-11-29T07:37:56.338Z,19.90
2023-11-29T07:38:59.201Z,19.90
2023-11-29T07:40:01.813Z,20.00
2023-11-29T07:41:04.672Z,20.00
2023-11-29T07:42:08.213Z,20.00
2023-11-29T07:43:11.790Z,20.00
2023-11-29T07:44:15.419Z,20.00
2023-11-29T07:45:18.042Z,20.00
2023-11-29T07:46:20.507Z,20.00
2023-11-29T07:47:24.129Z,20.00
2023-11-29T07:48:26.648Z,20.00
2023-11-29T07:49:30.565Z,20.00
2023-11-29T07:50:34.036Z,20.00
2023-11-29T07:51:36.427Z,20.00
2023-11-29T07:52:38.793Z,20.00
2023-11-29T07:53:43.129Z,20.00
2023-11-29T07:54:45.546Z,20.00
2023-11-29T07:55:47.969Z,20.00
2023-11-29T07:56:51.049Z,20.00
2023-11-29T07:57:53.468Z,20.00
2023-11-29T07:58:56.980Z,20.10
2023-11-29T08:00:00.028Z,20.00
2023-11-29T08:01:02.539Z,20.00
2023-11-29T08:02:05.281Z,20.00
2023-11-29T08:03:08.038Z,20.00
2023-11-29T08:04:10.676Z,20.10
2023-11-29T08:05:13.142Z,20.10
2023-11-29T08:06:15.926Z,20.10
2023-11-29T08:07:18.681Z,20.10
2023-11-29T08:08:21.899Z,20.00
2023-11-29T08:09:24.229Z,20.10
2023-11-29T08:10:26.958Z,20.10
2023-11-29T08:11:29.409Z,20.10
2023-11-29T08:12:32.239Z,20.10
2023-11-29T08:13:34.651Z,20.10
2023-11-29T08:14:37.120Z,20.10
2023-11-29T08:15:39.553Z,20.10
2023-11-29T08:16:41.897Z,20.10
2023-11-29T08:17:45.017Z,20.10
2023-11-29T08:18:48.177Z,20.10
2023-11-29T08:19:50.886Z,20.10
2023-11-29T08:20:53.747Z,20.10
2023-11-29T08:21:56.858Z,20.10
2023-11-29T08:22:59.402Z,20.10
2023-11-29T08:24:02.856Z,20.10
2023-11-29T08:25:05.727Z,20.10
2023-11-29T08:26:08.950Z,20.10
2023-11-29T08:27:12.209Z,20.10
2023-11-29T08:28:14.721Z,20.10
2023-11-29T08:29:17.053Z,20.20
2023-11-29T08:30:19.966Z,20.10
2023-11-29T08:31:22.830Z,20.10
2023-11-29T08:32:25.752Z,20.10
2023-11-29T08:33:31.255Z,20.10
2023-11-29T08:34:33.755Z,20.20
2023-11-29T08:35:37.240Z,20.20
2023-11-29T08:36:39.888Z,20.20
2023-11-29T08:37:42.306Z,20.10
2023-11-29T08:38:44.778Z,20.20
2023-11-29T08:39:47.181Z,20.20
2023-11-29T08:40:49.705Z,20.20
2023-11-29T08:41:52.306Z,20.20
2023-11-29T08:42:55.269Z,20.20
2023-11-29T08:43:57.673Z,20.20
2023-11-29T08:45:00.200Z,20.20
2023-11-29T08:46:04.505Z,20.20
2023-11-29T08:47:07.810Z,20.20
2023-11-29T08:48:10.877Z,20.20
2023-11-29T08:49:13.534Z,20.20
2023-11-29T08:50:16.854Z,20.20
2023-11-29T08:51:19.247Z,20.20
2023-11-29T08:52:24.941Z,20.20
2023-11-29T08:53:33.676Z,20.20
2023-11-29T08:54:40.455Z,20.20
2023-11-29T08:55:45.417Z,20.20
2023-11-29T08:56:47.983Z,20.30
2023-11-29T08:57:53.076Z,20.30
2023-11-29T08:58:57.368Z,20.30
2023-11-29T09:00:00.570Z,20.30
2023-11-29T09:01:04.944Z,20.20
2023-11-29T09:02:07.402Z,20.30
2023-11-29T09:03:10.917Z,20.30
2023-11-29T09:04:13.858Z,20.30
2023-11-29T09:05:19.543Z,20.30
2023-11-29T09:06:23.879Z,20.30
2023-11-29T09:07:26.846Z,20.30
2023-11-29T09:08:31.875Z,20.30
2023-11-29T09:09:34.320Z,20.30
2023-11-29T09:10:39.321Z,20.30
2023-11-29T09:11:41.705Z,20.30
2023-11-29T09:12:44.213Z,20.30
2023-11-29T09:13:49.370Z,20.30
2023-11-29T09:14:58.355Z,20.30
2023-11-29T09:16:00.911Z,20.30
2023-11-29T09:17:05.549Z,20.30
2023-11-29T09:18:08.014Z,20.30
2023-11-29T09:19:11.405Z,20.30
2023-11-29T09:20:14.196Z,20.30
2023-11-29T09:21:17.541Z,20.30
2023-11-29T09:22:20.494Z,20.30
2023-11-29T09:23:22.935Z,20.40
2023-11-29T09:24:26.564Z,20.30
2023-11-29T09:25:29.135Z,20.40
2023-11-29T09:26:31.970Z,20.30
2023-11-29T09:27:35.712Z,20.40
2023-11-29T09:28:38.122Z,20.40
2023-11-29T09:29:40.623Z,20.40
2023-11-29T09:30:45.619Z,20.40
2023-11-29T09:31:48.612Z,20.40
2023-11-29T09:32:51.017Z,20.40
2023-11-29T09:33:53.698Z,20.40
2023-11-29T09:34:56.756Z,20.40
2023-11-29T09:35:59.489Z,20.40
2023-11-29T09:37:02.166Z,20.40
2023-11-29T09:38:05.357Z,20.40
2023-11-29T09:39:14.137Z,20.40
2023-11-29T09:40:17.191Z,20.40
2023-11-29T09:41:20.217Z,20.40
2023-11-29T09:42:24.199Z,20.40
2023-11-29T09:43:26.810Z,20.40
2023-11-29T09:44:31.615Z,20.40
2023-11-29T09:45:34.779Z,20.50
2023-11-29T09:46:39.156Z,20.50
2023-11-29T09:47:41.910Z,20.50
2023-11-29T09:48:45.988Z,20.40
2023-11-29T09:49:50.026Z,20.50
2023-11-29T09:50:53.148Z,20.50
2023-11-29T09:51:55.553Z,20.50
2023-11-29T09:52:58.541Z,20.50
2023-11-29T09:54:01.801Z,20.50
2023-11-29T09:55:06.664Z,20.50
2023-11-29T09:56:09.378Z,20.50
2023-11-29T09:57:13.360Z,20.50
2023-11-29T09:58:16.937Z,20.50
2023-11-29T09:59:22.708Z,20.50
2023-11-29T10:00:27.480Z,20.50
2023-11-29T10:01:44.331Z,20.50
2023-11-29T10:02:47.755Z,20.60
2023-11-29T10:04:22.478Z,20.60
2023-11-29T10:05:26.251Z,20.60
2023-11-29T10:06:31.205Z,20.60
2023-11-29T10:07:35.620Z,20.60
2023-11-29T10:08:38.681Z,20.60
2023-11-29T10:09:41.161Z,20.60
2023-11-29T10:10:45.664Z,20.60
2023-11-29T10:11:48.609Z,20.60
2023-11-29T10:12:51.935Z,20.60
2023-11-29T10:13:54.778Z,20.60
2023-11-29T10:15:01.767Z,20.60
2023-11-29T10:16:10.638Z,20.60
2023-11-29T10:17:14.932Z,20.70
2023-11-29T10:18:19.585Z,20.70
2023-11-29T10:19:22.799Z,20.70
2023-11-29T10:20:27.856Z,20.60
2023-11-29T10:21:30.859Z,20.60
2023-11-29T10:22:35.212Z,20.70
2023-11-29T10:23:40.788Z,20.70
2023-11-29T10:24:43.843Z,20.70
2023-11-29T10:25:47.045Z,20.70
2023-11-29T10:26:49.417Z,20.70
2023-11-29T10:27:51.843Z,20.70
2023-11-29T10:28:55.197Z,20.70
2023-11-29T10:29:57.680Z,20.70
2023-11-29T10:31:02.584Z,20.70
2023-11-29T10:32:09.271Z,20.70
2023-11-29T10:33:12.323Z,20.70
2023-11-29T10:34:17.422Z,20.70
2023-11-29T10:35:27.631Z,20.70
2023-11-29T10:36:30.113Z,20.70
2023-11-29T10:37:33.647Z,20.70
2023-11-29T10:38:42.828Z,20.70
2023-11-29T10:39:50.363Z,20.70
2023-11-29T10:40:55.487Z,20.70
2023-11-29T10:41:59.521Z,20.70
2023-11-29T10:43:05.667Z,20.70
2023-11-29T10:44:11.249Z,20.80
2023-11-29T10:45:21.333Z,20.70
2023-11-29T10:46:29.574Z,20.80
2023-11-29T10:47:38.556Z,20.80
2023-11-29T10:48:46.163Z,20.70
2023-11-29T10:49:54.164Z,20.70
2023-11-29T10:50:57.893Z,20.80
2023-11-29T10:52:01.459Z,20.80
2023-11-29T10:53:04.207Z,20.80
2023-11-29T10:54:07.578Z,20.80
2023-11-29T10:55:10.670Z,20.80
2023-11-29T10:56:13.655Z,20.80
2023-11-29T10:57:24.997Z,20.80
2023-11-29T10:58:36.949Z,20.80
2023-11-29T10:59:44.050Z,20.80
2023-11-29T11:00:47.091Z,20.80
2023-11-29T11:01:49.777Z,20.80
2023-11-29T11:02:52.893Z,20.80
2023-11-29T11:04:00.647Z,20.80
2023-11-29T11:05:06.952Z,20.80
2023-11-29T11:06:25.199Z,20.80
2023-11-29T11:07:44.005Z,20.80
2023-11-29T11:08:46.380Z,20.80
2023-11-29T11:09:48.841Z,20.80
2023-11-29T11:10:52.210Z,20.80
2023-11-29T11:11:55.186Z,20.80
2023-11-29T11:12:59.521Z,20.80
2023-11-29T11:14:05.642Z,20.80
2023-11-29T11:15:13.708Z,20.80
2023-11-29T11:16:21.818Z,20.80
2023-11-29T11:17:24.578Z,20.80
2023-11-29T11:18:27.311Z,20.80
2023-11-29T11:19:34.217Z,20.80
2023-11-29T11:20:49.705Z,20.80
2023-11-29T11:21:52.906Z,20.80
2023-11-29T11:22:56.568Z,20.80
2023-11-29T11:24:01.554Z,20.80
2023-11-29T11:25:13.992Z,20.80
2023-11-29T11:26:18.149Z,20.80
2023-11-29T11:27:29.932Z,20.80
2023-11-29T11:28:38.515Z,20.80
2023-11-29T11:29:41.574Z,20.80
2023-11-29T11:30:44.108Z,20.80
2023-11-29T11:31:47.706Z,20.80
2023-11-29T11:32:58.182Z,20.80
2023-11-29T11:34:01.534Z,20.80
2023-11-29T11:35:20.326Z,20.80
2023-11-29T11:36:24.614Z,20.80
2023-11-29T11:37:28.873Z,20.80
2023-11-29T11:38:32.557Z,20.80
2023-11-29T11:39:37.446Z,20.90
2023-11-29T11:40:42.020Z,20.80
2023-11-29T11:41:44.681Z,20.80
2023-11-29T11:42:49.697Z,20.80
2023-11-29T11:43:52.653Z,20.90
2023-11-29T11:44:55.424Z,20.90
2023-11-29T11:45:58.724Z,20.80
2023-11-29T11:47:01.112Z,20.90
2023-11-29T11:48:07.587Z,20.90
2023-11-29T11:49:10.250Z,20.90
2023-11-29T11:50:13.915Z,20.90
2023-11-29T11:51:20.955Z,20.90
2023-11-29T11:52:23.508Z,20.90
2023-11-29T11:53:25.956Z,20.90
2023-11-29T11:54:28.343Z,20.90
2023-11-29T11:55:31.388Z,20.90
2023-11-29T11:56:33.812Z,20.90
2023-11-29T11:57:37.201Z,20.90
2023-11-29T11:58:39.590Z,20.90
2023-11-29T11:59:42.402Z,21.00
2023-11-29T12:00:44.960Z,21.00
2023-11-29T12:01:47.701Z,20.90
2023-11-29T12:02:51.938Z,21.00
2023-11-29T12:03:55.110Z,21.00
2023-11-29T12:04:57.629Z,21.00
2023-11-29T12:06:00.095Z,21.00
2023-11-29T12:07:05.376Z,21.00
2023-11-29T12:08:09.084Z,21.00
2023-11-29T12:09:13.187Z,21.00
2023-11-29T12:10:16.023Z,21.00
2023-11-29T12:11:20.162Z,21.00
2023-11-29T12:12:24.325Z,21.00
2023-11-29T12:13:27.189Z,21.00
2023-11-29T12:14:31.427Z,21.10
2023-11-29T12:15:35.553Z,21.10
2023-11-29T12:16:38.255Z,21.10
2023-11-29T12:17:41.893Z,21.10
2023-11-29T12:18:44.830Z,21.00
2023-11-29T12:19:50.292Z,21.10
2023-11-29T12:20:53.002Z,21.10
2023-11-29T12:21:55.467Z,21.10
2023-11-29T12:22:58.459Z,21.10
2023-11-29T12:24:05.731Z,21.10
2023-11-29T12:25:13.104Z,21.10
2023-11-29T12:26:16.657Z,21.10
2023-11-29T12:27:19.462Z,21.10
2023-11-29T12:28:26.024Z,21.10
2023-11-29T12:29:28.456Z,21.10
2023-11-29T12:30:30.918Z,21.10
2023-11-29T12:31:40.294Z,21.10
2023-11-29T12:32:43.543Z,21.10
2023-11-29T12:33:46.913Z,21.10
2023-11-29T12:34:49.524Z,21.10
2023-11-29T12:35:51.886Z,21.10
2023-11-29T12:36:58.659Z,21.10
2023-11-29T12:38:01.906Z,21.00
2023-11-29T12:39:05.242Z,20.90
2023-11-29T12:40:11.159Z,20.80
2023-11-29T12:41:13.624Z,20.80
2023-11-29T12:42:16.818Z,20.70
2023-11-29T12:43:19.880Z,20.60
2023-11-29T12:44:22.383Z,20.50
2023-11-29T12:45:24.717Z,20.50
2023-11-29T12:46:27.120Z,20.40
2023-11-29T12:47:31.639Z,20.30
2023-11-29T12:48:35.789Z,20.30
2023-11-29T12:49:38.423Z,20.20
2023-11-29T12:50:40.865Z,19.80
2023-11-29T12:51:43.847Z,19.20
2023-11-29T12:52:46.441Z,18.90
2023-11-29T12:53:48.793Z,18.60
2023-11-29T12:54:51.242Z,18.30
2023-11-29T12:55:54.383Z,18.10
2023-11-29T12:56:57.600Z,17.80
2023-11-29T12:58:00.211Z,17.70
2023-11-29T12:59:02.609Z,17.60
2023-11-29T13:00:08.517Z,17.40
2023-11-29T13:01:10.963Z,17.30
2023-11-29T13:02:13.360Z,17.10
2023-11-29T13:03:16.026Z,16.90
2023-11-29T13:04:20.788Z,16.60
2023-11-29T13:05:23.441Z,16.60
2023-11-29T13:06:26.602Z,16.60
2023-11-29T13:07:28.966Z,16.40
2023-11-29T13:08:31.521Z,16.30
2023-11-29T13:09:34.464Z,16.20
2023-11-29T13:10:36.997Z,16.20
2023-11-29T13:11:40.912Z,16.10
2023-11-29T13:12:43.480Z,16.00
2023-11-29T13:13:45.888Z,15.90
2023-11-29T13:14:48.366Z,15.90
2023-11-29T13:15:50.729Z,15.90
2023-11-29T13:16:53.340Z,15.80
2023-11-29T13:17:56.092Z,15.70
2023-11-29T13:18:59.357Z,15.70
2023-11-29T13:20:01.760Z,15.70
2023-11-29T13:21:05.264Z,15.50
2023-11-29T13:22:09.496Z,15.40
2023-11-29T13:23:11.902Z,15.30
2023-11-29T13:24:14.492Z,15.30
2023-11-29T13:25:17.015Z,15.50
2023-11-29T13:26:20.569Z,15.80
2023-11-29T13:27:22.943Z,16.00
2023-11-29T13:28:26.780Z,16.20
2023-11-29T13:29:29.169Z,16.40
2023-11-29T13:30:31.610Z,16.60
2023-11-29T13:31:34.073Z,16.70
2023-11-29T13:32:36.677Z,16.90
2023-11-29T13:33:39.427Z,17.10
2023-11-29T13:34:42.018Z,17.20
2023-11-29T13:35:45.879Z,17.40
2023-11-29T13:36:49.201Z,17.50
2023-11-29T13:37:52.434Z,17.60
2023-11-29T13:38:55.278Z,17.80
2023-11-29T13:39:57.666Z,17.90
2023-11-29T13:41:00.211Z,18.00
2023-11-29T13:42:04.075Z,18.10